Timothy-r — 9HA2736 — position and weather

sailwx.info

Track history (hours):
 
Tides and Currents Weather Stations Pressure Air Temp Water Temp Dewpoint Dewpoint Depression Visibility Wind Speed Wind Dir Waves Ship Positions

Timothy-r

Last reported at 2013-Nov-11 09:33 UTC. Time now 2014-Oct-01 18:30 UTC.
Position N 37°20' E 024°10'.
Warning: this ship's position is months out of date.

Length 180 m; draft 8.9 m.

Type: Cargo ship. MMSI: 215460000.

Date/timePositionNaut miles runAvg speedWind from/ knotsBaromVisibWave heightAir tempDewpointWater temp
2013-Nov-11 09:33N 37°20' E 024°10'1111.2
2013-Nov-11 08:34N 37°28' E 024°19'1311.2
2013-Nov-11 07:24N 37°39' E 024°28'1111.2
2013-Nov-11 06:23N 37°49' E 024°34'2111.1
2013-Nov-11 04:28N 38°09' E 024°44'23910.7
2013-Nov-10 06:14N 40°53' E 028°30'1111.8
2013-Nov-10 05:16N 40°54' E 028°45'811.8
2013-Nov-10 04:34N 40°57' E 028°55'30 3.3
2013-Nov-09 19:16N 41°25' E 029°08'7 7.9
2013-Nov-09 18:23N 41°30' E 029°01'  
2013-Nov-03 13:33N 41°22' E 029°13'272 6.5
2013-Nov-01 19:32N 38°19' E 024°51'1111.2
2013-Nov-01 18:33N 38°09' E 024°45'1110.6
2013-Nov-01 17:29N 37°59' E 024°39'910.2
2013-Nov-01 16:33N 37°50' E 024°34'1110.5
2013-Nov-01 15:33N 37°40' E 024°29'1111.3
2013-Nov-01 14:33N 37°31' E 024°21'1211.3
2013-Nov-01 13:32N 37°22' E 024°12'1110.7
2013-Nov-01 12:32N 37°14' E 024°03'2410.8
2013-Nov-01 10:20N 36°56' E 023°43'810.2
2013-Nov-01 09:33N 36°51' E 023°36'  
Track history (hours):
 
Tides and Currents Weather Stations Pressure Air Temp Water Temp Dewpoint Dewpoint Depression Visibility Wind Speed Wind Dir Waves Ship Positions

Timothy-r

Last reported at 2013-Nov-11 09:33 UTC. Time now 2014-Oct-01 18:30 UTC.
Position N 37°20' E 024°10'.
Warning: this ship's position is months out of date.

Length 180 m; draft 8.9 m.

Type: Cargo ship. MMSI: 215460000.

Date/timePositionNaut miles runAvg speedWind from/ knotsBaromVisibWave heightAir tempDewpointWater temp
2013-Nov-11 09:33N 37°20' E 024°10'1111.2
2013-Nov-11 08:34N 37°28' E 024°19'1311.2
2013-Nov-11 07:24N 37°39' E 024°28'1111.2
2013-Nov-11 06:23N 37°49' E 024°34'2111.1
2013-Nov-11 04:28N 38°09' E 024°44'23910.7
2013-Nov-10 06:14N 40°53' E 028°30'1111.8
2013-Nov-10 05:16N 40°54' E 028°45'811.8
2013-Nov-10 04:34N 40°57' E 028°55'30 3.3
2013-Nov-09 19:16N 41°25' E 029°08'7 7.9
2013-Nov-09 18:23N 41°30' E 029°01'  
2013-Nov-03 13:33N 41°22' E 029°13'272 6.5
2013-Nov-01 19:32N 38°19' E 024°51'1111.2
2013-Nov-01 18:33N 38°09' E 024°45'1110.6
2013-Nov-01 17:29N 37°59' E 024°39'910.2
2013-Nov-01 16:33N 37°50' E 024°34'1110.5
2013-Nov-01 15:33N 37°40' E 024°29'1111.3
2013-Nov-01 14:33N 37°31' E 024°21'1211.3
2013-Nov-01 13:32N 37°22' E 024°12'1110.7
2013-Nov-01 12:32N 37°14' E 024°03'2410.8
2013-Nov-01 10:20N 36°56' E 023°43'810.2
2013-Nov-01 09:33N 36°51' E 023°36'  

Dump ship's entire track history